Abegondo, Spain
Current Conditions -  °F | °C
As of 2:00 PM on Sunday 21 Dec 2014 (Local Time) from LECO Reporting Station
Clear Clear  
Wind Chill: 59°   Ceiling: Unl
Heat Index: 59°   Visibility: 6mi
Dew Point: 55°   Wind: 1mph
Humidity: 88%   Direction: NA
Pressure: 30.5"   Gusts: NA
Location:  43.22°N, 8.28°W
Report Text: LECO 211300Z VRB01KT CAVOK 15/13 Q1033 NOSIG
Loading
Personal Weather Stations






























Interactive Weather Map New forecast layout! Learn more

10-Day Weather Forecast

Advertisements
Track Severe Weather on mobile